sensor_id;sensor_type;location;lat;lon;timestamp;temperature;humidity
71047;SHT31;58703;48.978;8.982;2023-01-30T00:00:32;-4.51;98.13
71047;SHT31;58703;48.978;8.982;2023-01-30T00:02:59;-4.52;98.47
71047;SHT31;58703;48.978;8.982;2023-01-30T00:05:26;-4.54;97.55
71047;SHT31;58703;48.978;8.982;2023-01-30T00:07:51;-4.68;97.74
71047;SHT31;58703;48.978;8.982;2023-01-30T00:10:17;-4.81;98.18
71047;SHT31;58703;48.978;8.982;2023-01-30T00:12:42;-4.83;98.18
71047;SHT31;58703;48.978;8.982;2023-01-30T00:15:08;-4.91;98.68
71047;SHT31;58703;48.978;8.982;2023-01-30T00:17:35;-5.02;98.95
71047;SHT31;58703;48.978;8.982;2023-01-30T00:20:02;-4.78;99.50
71047;SHT31;58703;48.978;8.982;2023-01-30T00:22:29;-4.66;98.98
71047;SHT31;58703;48.978;8.982;2023-01-30T00:24:56;-4.73;98.30
71047;SHT31;58703;48.978;8.982;2023-01-30T00:27:23;-4.93;97.98
71047;SHT31;58703;48.978;8.982;2023-01-30T00:29:49;-5.05;98.20
71047;SHT31;58703;48.978;8.982;2023-01-30T00:32:16;-5.16;98.38
71047;SHT31;58703;48.978;8.982;2023-01-30T00:34:41;-5.16;98.79
71047;SHT31;58703;48.978;8.982;2023-01-30T00:37:06;-5.34;99.25
71047;SHT31;58703;48.978;8.982;2023-01-30T00:39:32;-5.48;99.99
71047;SHT31;58703;48.978;8.982;2023-01-30T00:41:57;-5.33;99.99
71047;SHT31;58703;48.978;8.982;2023-01-30T00:44:44;-5.24;99.99
71047;SHT31;58703;48.978;8.982;2023-01-30T00:47:29;-5.27;99.99
71047;SHT31;58703;48.978;8.982;2023-01-30T00:49:56;-4.97;99.99
71047;SHT31;58703;48.978;8.982;2023-01-30T00:52:21;-4.57;99.99
71047;SHT31;58703;48.978;8.982;2023-01-30T00:54:47;-4.31;99.99
71047;SHT31;58703;48.978;8.982;2023-01-30T00:57:15;-4.17;99.99
71047;SHT31;58703;48.978;8.982;2023-01-30T00:59:41;-4.14;99.99
71047;SHT31;58703;48.978;8.982;2023-01-30T01:02:06;-4.21;99.99
71047;SHT31;58703;48.978;8.982;2023-01-30T01:04:33;-3.85;99.99
71047;SHT31;58703;48.978;8.982;2023-01-30T01:07:09;-3.30;98.76
71047;SHT31;58703;48.978;8.982;2023-01-30T01:09:35;-3.07;98.26
71047;SHT31;58703;48.978;8.982;2023-01-30T01:12:01;-2.83;97.07
71047;SHT31;58703;48.978;8.982;2023-01-30T01:14:27;-2.85;96.35
71047;SHT31;58703;48.978;8.982;2023-01-30T01:16:53;-2.80;95.70
71047;SHT31;58703;48.978;8.982;2023-01-30T01:19:20;-2.88;95.83
71047;SHT31;58703;48.978;8.982;2023-01-30T01:21:45;-2.64;96.27
71047;SHT31;58703;48.978;8.982;2023-01-30T01:24:12;-2.46;96.13
71047;SHT31;58703;48.978;8.982;2023-01-30T01:26:39;-2.28;95.04
71047;SHT31;58703;48.978;8.982;2023-01-30T01:29:11;-2.18;95.17
71047;SHT31;58703;48.978;8.982;2023-01-30T01:31:37;-2.06;94.72
71047;SHT31;58703;48.978;8.982;2023-01-30T01:34:03;-2.11;94.53
71047;SHT31;58703;48.978;8.982;2023-01-30T01:36:30;-2.13;94.83
71047;SHT31;58703;48.978;8.982;2023-01-30T01:38:55;-1.80;94.20
71047;SHT31;58703;48.978;8.982;2023-01-30T01:41:22;-1.80;93.87
71047;SHT31;58703;48.978;8.982;2023-01-30T01:44:08;-1.81;93.96
71047;SHT31;58703;48.978;8.982;2023-01-30T01:46:39;-1.75;94.16
71047;SHT31;58703;48.978;8.982;2023-01-30T01:49:16;-1.61;93.60
71047;SHT31;58703;48.978;8.982;2023-01-30T01:51:54;-1.57;93.43
71047;SHT31;58703;48.978;8.982;2023-01-30T01:54:30;-1.61;93.61
71047;SHT31;58703;48.978;8.982;2023-01-30T01:57:01;-1.56;93.35
71047;SHT31;58703;48.978;8.982;2023-01-30T01:59:34;-1.42;92.72
71047;SHT31;58703;48.978;8.982;2023-01-30T02:02:06;-1.21;91.60
71047;SHT31;58703;48.978;8.982;2023-01-30T02:04:35;-1.23;91.65
71047;SHT31;58703;48.978;8.982;2023-01-30T02:07:22;-1.20;91.48
71047;SHT31;58703;48.978;8.982;2023-01-30T02:09:49;-1.16;91.12
71047;SHT31;58703;48.978;8.982;2023-01-30T02:12:17;-1.10;90.92
71047;SHT31;58703;48.978;8.982;2023-01-30T02:14:43;-1.07;90.71
71047;SHT31;58703;48.978;8.982;2023-01-30T02:17:10;-1.25;91.37
71047;SHT31;58703;48.978;8.982;2023-01-30T02:19:50;-1.16;91.19
71047;SHT31;58703;48.978;8.982;2023-01-30T02:36:35;-1.07;91.35
71047;SHT31;58703;48.978;8.982;2023-01-30T02:39:36;-0.96;90.77
71047;SHT31;58703;48.978;8.982;2023-01-30T02:42:10;-0.81;90.23
71047;SHT31;58703;48.978;8.982;2023-01-30T02:45:03;-0.82;90.17
71047;SHT31;58703;48.978;8.982;2023-01-30T02:47:36;-0.75;89.83
71047;SHT31;58703;48.978;8.982;2023-01-30T02:50:17;-0.66;89.28
71047;SHT31;58703;48.978;8.982;2023-01-30T02:52:44;-0.72;89.69
71047;SHT31;58703;48.978;8.982;2023-01-30T02:55:26;-0.82;90.01
71047;SHT31;58703;48.978;8.982;2023-01-30T02:57:52;-0.92;90.51
71047;SHT31;58703;48.978;8.982;2023-01-30T03:00:28;-0.99;90.65
71047;SHT31;58703;48.978;8.982;2023-01-30T03:11:06;-1.06;90.61
71047;SHT31;58703;48.978;8.982;2023-01-30T03:16:39;-1.03;90.37
71047;SHT31;58703;48.978;8.982;2023-01-30T03:19:09;-1.02;89.91
71047;SHT31;58703;48.978;8.982;2023-01-30T03:21:43;-1.00;90.30
71047;SHT31;58703;48.978;8.982;2023-01-30T03:24:10;-1.03;90.59
71047;SHT31;58703;48.978;8.982;2023-01-30T03:26:42;-1.03;90.65
71047;SHT31;58703;48.978;8.982;2023-01-30T03:29:09;-0.96;89.55
71047;SHT31;58703;48.978;8.982;2023-01-30T03:31:34;-0.89;89.28
71047;SHT31;58703;48.978;8.982;2023-01-30T03:34:00;-0.88;89.71
71047;SHT31;58703;48.978;8.982;2023-01-30T03:36:26;-0.88;89.34
71047;SHT31;58703;48.978;8.982;2023-01-30T03:38:51;-0.84;89.99
71047;SHT31;58703;48.978;8.982;2023-01-30T03:41:17;-0.75;89.80
71047;SHT31;58703;48.978;8.982;2023-01-30T03:43:44;-0.76;89.97
71047;SHT31;58703;48.978;8.982;2023-01-30T03:46:11;-0.86;90.56
71047;SHT31;58703;48.978;8.982;2023-01-30T03:48:36;-0.88;90.50
71047;SHT31;58703;48.978;8.982;2023-01-30T03:51:02;-1.00;90.54
71047;SHT31;58703;48.978;8.982;2023-01-30T03:53:28;-1.05;90.63
71047;SHT31;58703;48.978;8.982;2023-01-30T03:55:53;-1.02;90.18
71047;SHT31;58703;48.978;8.982;2023-01-30T03:58:20;-1.02;90.62
71047;SHT31;58703;48.978;8.982;2023-01-30T04:00:46;-1.05;90.93
71047;SHT31;58703;48.978;8.982;2023-01-30T04:03:11;-1.03;91.67
71047;SHT31;58703;48.978;8.982;2023-01-30T04:05:37;-1.10;92.08
71047;SHT31;58703;48.978;8.982;2023-01-30T04:08:03;-1.15;92.62
71047;SHT31;58703;48.978;8.982;2023-01-30T04:10:29;-1.15;92.95
71047;SHT31;58703;48.978;8.982;2023-01-30T04:12:54;-1.20;93.64
71047;SHT31;58703;48.978;8.982;2023-01-30T04:15:21;-1.16;92.34
71047;SHT31;58703;48.978;8.982;2023-01-30T04:17:46;-1.12;91.80
71047;SHT31;58703;48.978;8.982;2023-01-30T04:20:12;-1.02;91.78
71047;SHT31;58703;48.978;8.982;2023-01-30T04:22:38;-1.02;91.55
71047;SHT31;58703;48.978;8.982;2023-01-30T04:25:03;-0.99;91.96
71047;SHT31;58703;48.978;8.982;2023-01-30T04:27:29;-0.92;91.55
71047;SHT31;58703;48.978;8.982;2023-01-30T04:29:56;-0.85;91.73
71047;SHT31;58703;48.978;8.982;2023-01-30T04:32:21;-0.68;89.17
71047;SHT31;58703;48.978;8.982;2023-01-30T04:34:47;-0.44;86.64
71047;SHT31;58703;48.978;8.982;2023-01-30T04:37:14;-0.38;86.97
71047;SHT31;58703;48.978;8.982;2023-01-30T04:39:41;-0.37;86.59
71047;SHT31;58703;48.978;8.982;2023-01-30T04:42:08;-0.28;84.83
71047;SHT31;58703;48.978;8.982;2023-01-30T04:44:34;-0.28;85.10
71047;SHT31;58703;48.978;8.982;2023-01-30T04:46:59;-0.30;85.51
71047;SHT31;58703;48.978;8.982;2023-01-30T04:49:26;-0.18;85.02
71047;SHT31;58703;48.978;8.982;2023-01-30T04:51:53;-0.15;84.82
71047;SHT31;58703;48.978;8.982;2023-01-30T04:54:20;-0.17;84.44
71047;SHT31;58703;48.978;8.982;2023-01-30T04:56:47;-0.23;85.07
71047;SHT31;58703;48.978;8.982;2023-01-30T04:59:15;-0.28;85.54
71047;SHT31;58703;48.978;8.982;2023-01-30T05:01:42;-0.31;85.23
71047;SHT31;58703;48.978;8.982;2023-01-30T05:04:09;-0.34;85.69
71047;SHT31;58703;48.978;8.982;2023-01-30T05:06:35;-0.33;85.48
71047;SHT31;58703;48.978;8.982;2023-01-30T05:09:03;-0.33;86.11
71047;SHT31;58703;48.978;8.982;2023-01-30T05:11:30;-0.34;85.29
71047;SHT31;58703;48.978;8.982;2023-01-30T05:13:58;-0.33;85.72
71047;SHT31;58703;48.978;8.982;2023-01-30T05:16:24;-0.37;86.02
71047;SHT31;58703;48.978;8.982;2023-01-30T05:18:51;-0.40;86.47
71047;SHT31;58703;48.978;8.982;2023-01-30T05:21:20;-0.42;86.88
71047;SHT31;58703;48.978;8.982;2023-01-30T05:23:47;-0.38;86.86
71047;SHT31;58703;48.978;8.982;2023-01-30T05:26:14;-0.37;86.93
71047;SHT31;58703;48.978;8.982;2023-01-30T05:28:41;-0.40;86.83
71047;SHT31;58703;48.978;8.982;2023-01-30T05:31:09;-0.37;86.65
71047;SHT31;58703;48.978;8.982;2023-01-30T05:33:37;-0.38;86.76
71047;SHT31;58703;48.978;8.982;2023-01-30T05:36:05;-0.44;87.33
71047;SHT31;58703;48.978;8.982;2023-01-30T05:38:32;-0.42;87.64
71047;SHT31;58703;48.978;8.982;2023-01-30T05:41:03;-0.44;87.60
71047;SHT31;58703;48.978;8.982;2023-01-30T05:43:31;-0.44;87.88
71047;SHT31;58703;48.978;8.982;2023-01-30T05:45:59;-0.42;87.81
71047;SHT31;58703;48.978;8.982;2023-01-30T05:48:27;-0.42;87.79
71047;SHT31;58703;48.978;8.982;2023-01-30T05:50:56;-0.42;88.14
71047;SHT31;58703;48.978;8.982;2023-01-30T05:53:24;-0.42;87.88
71047;SHT31;58703;48.978;8.982;2023-01-30T05:56:03;-0.35;87.35
71047;SHT31;58703;48.978;8.982;2023-01-30T05:58:30;-0.38;86.97
71047;SHT31;58703;48.978;8.982;2023-01-30T06:01:05;-0.35;87.27
71047;SHT31;58703;48.978;8.982;2023-01-30T06:03:31;-0.31;87.08
71047;SHT31;58703;48.978;8.982;2023-01-30T06:06:00;-0.30;86.99
71047;SHT31;58703;48.978;8.982;2023-01-30T06:08:28;-0.18;87.31
71047;SHT31;58703;48.978;8.982;2023-01-30T06:10:58;-0.13;86.52
71047;SHT31;58703;48.978;8.982;2023-01-30T06:13:24;0.01;86.50
71047;SHT31;58703;48.978;8.982;2023-01-30T06:15:51;0.14;86.42
71047;SHT31;58703;48.978;8.982;2023-01-30T06:18:18;0.11;86.46
71047;SHT31;58703;48.978;8.982;2023-01-30T06:20:52;0.13;86.89
71047;SHT31;58703;48.978;8.982;2023-01-30T06:23:20;0.04;87.17
71047;SHT31;58703;48.978;8.982;2023-01-30T06:25:48;-0.04;87.75
71047;SHT31;58703;48.978;8.982;2023-01-30T06:28:16;-0.17;87.73
71047;SHT31;58703;48.978;8.982;2023-01-30T06:30:42;-0.18;87.96
71047;SHT31;58703;48.978;8.982;2023-01-30T06:33:08;-0.13;87.84
71047;SHT31;58703;48.978;8.982;2023-01-30T06:35:36;-0.15;87.50
71047;SHT31;58703;48.978;8.982;2023-01-30T06:38:04;-0.13;87.57
71047;SHT31;58703;48.978;8.982;2023-01-30T06:40:30;-0.09;87.62
71047;SHT31;58703;48.978;8.982;2023-01-30T06:42:57;0.00;87.32
71047;SHT31;58703;48.978;8.982;2023-01-30T06:45:22;-0.01;87.43
71047;SHT31;58703;48.978;8.982;2023-01-30T06:47:50;0.00;87.45
71047;SHT31;58703;48.978;8.982;2023-01-30T06:50:17;-0.03;87.55
71047;SHT31;58703;48.978;8.982;2023-01-30T06:52:47;0.00;87.24
71047;SHT31;58703;48.978;8.982;2023-01-30T06:55:16;-0.04;87.44
71047;SHT31;58703;48.978;8.982;2023-01-30T06:57:43;-0.03;87.24
71047;SHT31;58703;48.978;8.982;2023-01-30T07:00:18;0.00;87.30
71047;SHT31;58703;48.978;8.982;2023-01-30T07:02:45;0.07;86.93
71047;SHT31;58703;48.978;8.982;2023-01-30T07:05:12;0.14;86.88
71047;SHT31;58703;48.978;8.982;2023-01-30T07:07:38;0.20;86.84
71047;SHT31;58703;48.978;8.982;2023-01-30T07:10:07;0.22;87.47
71047;SHT31;58703;48.978;8.982;2023-01-30T07:12:34;0.28;88.11
71047;SHT31;58703;48.978;8.982;2023-01-30T07:15:02;0.25;88.82
71047;SHT31;58703;48.978;8.982;2023-01-30T07:17:29;0.32;88.98
71047;SHT31;58703;48.978;8.982;2023-01-30T07:19:57;0.81;88.10
71047;SHT31;58703;48.978;8.982;2023-01-30T07:22:24;1.03;87.45
71047;SHT31;58703;48.978;8.982;2023-01-30T07:24:49;1.32;85.38
71047;SHT31;58703;48.978;8.982;2023-01-30T07:27:16;1.32;85.66
71047;SHT31;58703;48.978;8.982;2023-01-30T07:29:43;1.36;85.24
71047;SHT31;58703;48.978;8.982;2023-01-30T07:32:14;1.32;86.29
71047;SHT31;58703;48.978;8.982;2023-01-30T07:34:41;1.30;86.38
71047;SHT31;58703;48.978;8.982;2023-01-30T07:37:08;1.23;86.96
71047;SHT31;58703;48.978;8.982;2023-01-30T07:39:35;1.16;87.53
71047;SHT31;58703;48.978;8.982;2023-01-30T07:42:02;1.26;88.02
71047;SHT31;58703;48.978;8.982;2023-01-30T07:44:32;1.23;87.64
71047;SHT31;58703;48.978;8.982;2023-01-30T07:47:07;1.32;87.75
71047;SHT31;58703;48.978;8.982;2023-01-30T07:49:34;1.33;88.20
71047;SHT31;58703;48.978;8.982;2023-01-30T07:52:01;1.43;87.77
71047;SHT31;58703;48.978;8.982;2023-01-30T07:54:28;1.40;88.35
71047;SHT31;58703;48.978;8.982;2023-01-30T07:56:53;1.48;87.54
71047;SHT31;58703;48.978;8.982;2023-01-30T07:59:20;1.37;88.43
71047;SHT31;58703;48.978;8.982;2023-01-30T08:01:46;1.36;88.75
71047;SHT31;58703;48.978;8.982;2023-01-30T08:04:13;1.40;88.71
71047;SHT31;58703;48.978;8.982;2023-01-30T08:06:40;1.40;88.70
71047;SHT31;58703;48.978;8.982;2023-01-30T08:09:08;1.34;88.84
71047;SHT31;58703;48.978;8.982;2023-01-30T08:11:35;1.37;89.89
71047;SHT31;58703;48.978;8.982;2023-01-30T08:14:03;1.39;89.79
71047;SHT31;58703;48.978;8.982;2023-01-30T08:16:31;1.42;89.43
71047;SHT31;58703;48.978;8.982;2023-01-30T08:18:59;1.39;90.01
71047;SHT31;58703;48.978;8.982;2023-01-30T08:21:25;1.48;90.07
71047;SHT31;58703;48.978;8.982;2023-01-30T08:23:51;1.51;90.03
71047;SHT31;58703;48.978;8.982;2023-01-30T08:26:16;1.60;89.60
71047;SHT31;58703;48.978;8.982;2023-01-30T08:28:43;1.71;89.19
71047;SHT31;58703;48.978;8.982;2023-01-30T08:31:12;1.75;89.23
71047;SHT31;58703;48.978;8.982;2023-01-30T08:33:38;1.88;89.77
71047;SHT31;58703;48.978;8.982;2023-01-30T08:36:04;2.08;88.76
71047;SHT31;58703;48.978;8.982;2023-01-30T08:38:30;2.15;88.81
71047;SHT31;58703;48.978;8.982;2023-01-30T08:40:56;2.15;88.46
71047;SHT31;58703;48.978;8.982;2023-01-30T08:43:22;2.17;88.25
71047;SHT31;58703;48.978;8.982;2023-01-30T08:45:52;2.19;88.30
71047;SHT31;58703;48.978;8.982;2023-01-30T08:48:20;2.25;88.31
71047;SHT31;58703;48.978;8.982;2023-01-30T08:50:47;2.29;88.12
71047;SHT31;58703;48.978;8.982;2023-01-30T08:53:12;2.30;88.35
71047;SHT31;58703;48.978;8.982;2023-01-30T08:55:38;2.28;88.15
71047;SHT31;58703;48.978;8.982;2023-01-30T08:58:03;2.38;87.93
71047;SHT31;58703;48.978;8.982;2023-01-30T09:00:30;2.39;88.27
71047;SHT31;58703;48.978;8.982;2023-01-30T09:02:57;2.46;87.75
71047;SHT31;58703;48.978;8.982;2023-01-30T09:05:24;2.53;87.66
71047;SHT31;58703;48.978;8.982;2023-01-30T09:07:51;2.59;87.23
71047;SHT31;58703;48.978;8.982;2023-01-30T09:10:18;2.66;87.27
71047;SHT31;58703;48.978;8.982;2023-01-30T09:12:44;2.81;87.09
71047;SHT31;58703;48.978;8.982;2023-01-30T09:15:10;2.73;87.22
71047;SHT31;58703;48.978;8.982;2023-01-30T09:17:37;2.81;87.03
71047;SHT31;58703;48.978;8.982;2023-01-30T09:20:07;2.79;87.12
71047;SHT31;58703;48.978;8.982;2023-01-30T09:22:33;2.90;86.51
71047;SHT31;58703;48.978;8.982;2023-01-30T09:24:59;2.83;87.06
71047;SHT31;58703;48.978;8.982;2023-01-30T09:27:24;2.94;86.71
71047;SHT31;58703;48.978;8.982;2023-01-30T09:29:50;2.96;86.88
71047;SHT31;58703;48.978;8.982;2023-01-30T09:32:16;3.05;86.53
71047;SHT31;58703;48.978;8.982;2023-01-30T09:34:41;3.07;86.43
71047;SHT31;58703;48.978;8.982;2023-01-30T09:37:08;3.04;86.76
71047;SHT31;58703;48.978;8.982;2023-01-30T09:39:34;3.12;86.44
71047;SHT31;58703;48.978;8.982;2023-01-30T09:44:56;3.17;86.13
71047;SHT31;58703;48.978;8.982;2023-01-30T09:47:37;3.20;86.15
71047;SHT31;58703;48.978;8.982;2023-01-30T09:56:04;3.24;86.32
71047;SHT31;58703;48.978;8.982;2023-01-30T09:58:58;3.24;86.94
71047;SHT31;58703;48.978;8.982;2023-01-30T10:04:44;3.34;86.77
71047;SHT31;58703;48.978;8.982;2023-01-30T10:07:20;3.39;86.64
71047;SHT31;58703;48.978;8.982;2023-01-30T10:20:42;3.45;87.38
71047;SHT31;58703;48.978;8.982;2023-01-30T10:23:37;3.52;87.11
71047;SHT31;58703;48.978;8.982;2023-01-30T10:28:38;3.46;87.09
71047;SHT31;58703;48.978;8.982;2023-01-30T10:31:10;3.45;87.13
71047;SHT31;58703;48.978;8.982;2023-01-30T10:33:58;3.41;87.36
71047;SHT31;58703;48.978;8.982;2023-01-30T10:36:35;3.41;87.35
71047;SHT31;58703;48.978;8.982;2023-01-30T10:39:09;3.39;87.34
71047;SHT31;58703;48.978;8.982;2023-01-30T10:41:51;3.38;87.39
71047;SHT31;58703;48.978;8.982;2023-01-30T10:44:21;3.34;87.67
71047;SHT31;58703;48.978;8.982;2023-01-30T10:49:46;3.32;87.77
71047;SHT31;58703;48.978;8.982;2023-01-30T10:55:14;3.31;88.12
71047;SHT31;58703;48.978;8.982;2023-01-30T10:57:54;3.38;87.69
71047;SHT31;58703;48.978;8.982;2023-01-30T11:00:29;3.42;87.54
71047;SHT31;58703;48.978;8.982;2023-01-30T11:03:21;3.50;87.43
71047;SHT31;58703;48.978;8.982;2023-01-30T11:05:53;3.48;87.62
71047;SHT31;58703;48.978;8.982;2023-01-30T11:08:39;3.51;87.63
71047;SHT31;58703;48.978;8.982;2023-01-30T11:14:09;3.59;87.84
71047;SHT31;58703;48.978;8.982;2023-01-30T11:16:53;3.54;88.04
71047;SHT31;58703;48.978;8.982;2023-01-30T11:19:31;3.52;87.78
71047;SHT31;58703;48.978;8.982;2023-01-30T11:22:03;3.59;87.78
71047;SHT31;58703;48.978;8.982;2023-01-30T11:24:42;3.58;87.77
71047;SHT31;58703;48.978;8.982;2023-01-30T11:27:10;3.65;87.63
71047;SHT31;58703;48.978;8.982;2023-01-30T11:29:39;3.61;87.68
71047;SHT31;58703;48.978;8.982;2023-01-30T11:32:11;3.71;87.56
71047;SHT31;58703;48.978;8.982;2023-01-30T11:34:40;3.61;88.11
71047;SHT31;58703;48.978;8.982;2023-01-30T11:37:43;3.63;87.90
71047;SHT31;58703;48.978;8.982;2023-01-30T11:40:26;3.62;87.94
71047;SHT31;58703;48.978;8.982;2023-01-30T11:43:00;3.61;88.16
71047;SHT31;58703;48.978;8.982;2023-01-30T11:45:26;3.58;88.20
71047;SHT31;58703;48.978;8.982;2023-01-30T11:48:03;3.65;88.22
71047;SHT31;58703;48.978;8.982;2023-01-30T11:50:44;3.55;88.73
71047;SHT31;58703;48.978;8.982;2023-01-30T11:53:27;3.58;88.69
71047;SHT31;58703;48.978;8.982;2023-01-30T11:55:59;3.59;89.37
71047;SHT31;58703;48.978;8.982;2023-01-30T11:58:30;3.39;90.51
71047;SHT31;58703;48.978;8.982;2023-01-30T12:00:57;3.31;90.98
71047;SHT31;58703;48.978;8.982;2023-01-30T12:03:23;3.22;92.36
71047;SHT31;58703;48.978;8.982;2023-01-30T12:05:51;3.17;92.21
71047;SHT31;58703;48.978;8.982;2023-01-30T12:08:22;3.14;92.65
71047;SHT31;58703;48.978;8.982;2023-01-30T12:10:55;3.17;92.53
71047;SHT31;58703;48.978;8.982;2023-01-30T12:13:29;3.18;92.65
71047;SHT31;58703;48.978;8.982;2023-01-30T12:16:22;3.22;92.82
71047;SHT31;58703;48.978;8.982;2023-01-30T12:18:55;3.28;92.21
71047;SHT31;58703;48.978;8.982;2023-01-30T12:21:47;3.30;92.27
71047;SHT31;58703;48.978;8.982;2023-01-30T12:24:20;3.34;91.42
71047;SHT31;58703;48.978;8.982;2023-01-30T12:27:03;3.41;90.72
71047;SHT31;58703;48.978;8.982;2023-01-30T12:29:53;3.36;90.85
71047;SHT31;58703;48.978;8.982;2023-01-30T12:32:25;3.34;90.87
71047;SHT31;58703;48.978;8.982;2023-01-30T12:34:51;3.34;90.83
71047;SHT31;58703;48.978;8.982;2023-01-30T12:45:30;3.31;90.81
71047;SHT31;58703;48.978;8.982;2023-01-30T12:48:30;3.34;90.55
71047;SHT31;58703;48.978;8.982;2023-01-30T12:57:14;3.36;90.42
71047;SHT31;58703;48.978;8.982;2023-01-30T13:06:01;3.30;89.95
71047;SHT31;58703;48.978;8.982;2023-01-30T13:17:03;3.36;90.14
71047;SHT31;58703;48.978;8.982;2023-01-30T13:22:40;3.34;89.54
71047;SHT31;58703;48.978;8.982;2023-01-30T13:27:58;3.28;90.11
71047;SHT31;58703;48.978;8.982;2023-01-30T13:30:29;3.27;89.72
71047;SHT31;58703;48.978;8.982;2023-01-30T13:33:03;3.31;89.66
71047;SHT31;58703;48.978;8.982;2023-01-30T13:35:35;3.20;89.90
71047;SHT31;58703;48.978;8.982;2023-01-30T13:38:07;3.12;90.05
71047;SHT31;58703;48.978;8.982;2023-01-30T13:40:38;3.01;90.36
71047;SHT31;58703;48.978;8.982;2023-01-30T13:45:46;2.96;90.61
71047;SHT31;58703;48.978;8.982;2023-01-30T13:51:31;2.91;91.13
71047;SHT31;58703;48.978;8.982;2023-01-30T13:54:32;2.90;90.96
71047;SHT31;58703;48.978;8.982;2023-01-30T14:00:34;2.93;91.05
71047;SHT31;58703;48.978;8.982;2023-01-30T14:08:22;2.99;90.74
71047;SHT31;58703;48.978;8.982;2023-01-30T14:10:51;2.86;90.83
71047;SHT31;58703;48.978;8.982;2023-01-30T14:13:22;2.89;90.59
71047;SHT31;58703;48.978;8.982;2023-01-30T14:15:57;2.86;90.90
71047;SHT31;58703;48.978;8.982;2023-01-30T14:18:31;2.86;91.08
71047;SHT31;58703;48.978;8.982;2023-01-30T14:21:12;2.77;91.21
71047;SHT31;58703;48.978;8.982;2023-01-30T14:23:40;2.79;91.26
71047;SHT31;58703;48.978;8.982;2023-01-30T14:26:08;2.80;91.04
71047;SHT31;58703;48.978;8.982;2023-01-30T14:28:45;2.84;91.29
71047;SHT31;58703;48.978;8.982;2023-01-30T14:31:45;2.80;91.18
71047;SHT31;58703;48.978;8.982;2023-01-30T14:37:26;2.89;91.57
71047;SHT31;58703;48.978;8.982;2023-01-30T14:39:53;2.84;91.37
71047;SHT31;58703;48.978;8.982;2023-01-30T14:42:27;2.97;91.02
71047;SHT31;58703;48.978;8.982;2023-01-30T14:45:41;3.08;90.76
71047;SHT31;58703;48.978;8.982;2023-01-30T14:57:01;3.44;90.04
71047;SHT31;58703;48.978;8.982;2023-01-30T15:02:27;3.30;89.93
71047;SHT31;58703;48.978;8.982;2023-01-30T15:05:12;3.28;89.95
71047;SHT31;58703;48.978;8.982;2023-01-30T15:08:01;3.24;90.36
71047;SHT31;58703;48.978;8.982;2023-01-30T15:10:49;3.27;90.62
71047;SHT31;58703;48.978;8.982;2023-01-30T15:16:51;3.21;90.62
71047;SHT31;58703;48.978;8.982;2023-01-30T15:19:51;3.27;90.42
71047;SHT31;58703;48.978;8.982;2023-01-30T15:22:47;3.22;90.54
71047;SHT31;58703;48.978;8.982;2023-01-30T15:25:45;3.11;90.94
71047;SHT31;58703;48.978;8.982;2023-01-30T15:28:44;3.24;90.44
71047;SHT31;58703;48.978;8.982;2023-01-30T15:31:20;3.27;90.40
71047;SHT31;58703;48.978;8.982;2023-01-30T15:33:49;3.22;90.52
71047;SHT31;58703;48.978;8.982;2023-01-30T15:39:03;3.32;90.31
71047;SHT31;58703;48.978;8.982;2023-01-30T15:41:35;3.28;90.67
71047;SHT31;58703;48.978;8.982;2023-01-30T15:49:52;3.32;90.44
71047;SHT31;58703;48.978;8.982;2023-01-30T15:52:22;3.24;90.71
71047;SHT31;58703;48.978;8.982;2023-01-30T15:54:52;3.24;90.72
71047;SHT31;58703;48.978;8.982;2023-01-30T15:57:34;3.28;90.36
71047;SHT31;58703;48.978;8.982;2023-01-30T16:00:06;3.22;90.70
71047;SHT31;58703;48.978;8.982;2023-01-30T16:02:36;3.30;90.25
71047;SHT31;58703;48.978;8.982;2023-01-30T16:05:14;3.31;90.27
71047;SHT31;58703;48.978;8.982;2023-01-30T16:07:43;3.25;90.64
71047;SHT31;58703;48.978;8.982;2023-01-30T16:10:16;3.28;90.61
71047;SHT31;58703;48.978;8.982;2023-01-30T16:12:43;3.25;90.76
71047;SHT31;58703;48.978;8.982;2023-01-30T16:20:50;3.27;90.85
71047;SHT31;58703;48.978;8.982;2023-01-30T16:23:35;3.31;90.78
71047;SHT31;58703;48.978;8.982;2023-01-30T16:26:03;3.30;90.53
71047;SHT31;58703;48.978;8.982;2023-01-30T16:28:31;3.32;90.48
71047;SHT31;58703;48.978;8.982;2023-01-30T16:33:23;3.24;90.80
71047;SHT31;58703;48.978;8.982;2023-01-30T16:35:49;3.28;90.68
71047;SHT31;58703;48.978;8.982;2023-01-30T16:38:43;3.24;90.92
71047;SHT31;58703;48.978;8.982;2023-01-30T16:41:35;3.21;90.95
71047;SHT31;58703;48.978;8.982;2023-01-30T16:44:20;3.21;90.92
71047;SHT31;58703;48.978;8.982;2023-01-30T16:50:16;3.21;91.01
71047;SHT31;58703;48.978;8.982;2023-01-30T16:52:47;3.08;91.49
71047;SHT31;58703;48.978;8.982;2023-01-30T16:55:23;3.17;91.20
71047;SHT31;58703;48.978;8.982;2023-01-30T16:57:59;3.22;90.99
71047;SHT31;58703;48.978;8.982;2023-01-30T17:00:37;3.21;91.16
71047;SHT31;58703;48.978;8.982;2023-01-30T17:03:24;3.18;91.46
71047;SHT31;58703;48.978;8.982;2023-01-30T17:05:54;3.12;91.63
71047;SHT31;58703;48.978;8.982;2023-01-30T17:11:05;3.11;91.87
71047;SHT31;58703;48.978;8.982;2023-01-30T17:13:41;3.04;92.18
71047;SHT31;58703;48.978;8.982;2023-01-30T17:16:30;3.04;92.31
71047;SHT31;58703;48.978;8.982;2023-01-30T17:18:59;3.11;91.96
71047;SHT31;58703;48.978;8.982;2023-01-30T17:21:27;3.01;92.16
71047;SHT31;58703;48.978;8.982;2023-01-30T17:23:58;3.01;92.26
71047;SHT31;58703;48.978;8.982;2023-01-30T17:26:24;3.05;92.14
71047;SHT31;58703;48.978;8.982;2023-01-30T17:28:51;3.04;92.21
71047;SHT31;58703;48.978;8.982;2023-01-30T17:31:17;3.00;92.26
71047;SHT31;58703;48.978;8.982;2023-01-30T17:33:46;3.10;91.98
71047;SHT31;58703;48.978;8.982;2023-01-30T17:36:28;3.11;91.95
71047;SHT31;58703;48.978;8.982;2023-01-30T17:38:57;3.25;91.43
71047;SHT31;58703;48.978;8.982;2023-01-30T17:41:28;3.20;91.89
71047;SHT31;58703;48.978;8.982;2023-01-30T17:43:56;3.32;91.16
71047;SHT31;58703;48.978;8.982;2023-01-30T17:49:00;3.34;91.34
71047;SHT31;58703;48.978;8.982;2023-01-30T17:51:27;3.35;91.00
71047;SHT31;58703;48.978;8.982;2023-01-30T17:53:54;3.27;91.36
71047;SHT31;58703;48.978;8.982;2023-01-30T17:56:40;3.31;91.15
71047;SHT31;58703;48.978;8.982;2023-01-30T17:59:16;3.35;91.07
71047;SHT31;58703;48.978;8.982;2023-01-30T18:01:45;3.48;90.76
71047;SHT31;58703;48.978;8.982;2023-01-30T18:04:13;3.39;91.10
71047;SHT31;58703;48.978;8.982;2023-01-30T18:06:41;3.32;91.26
71047;SHT31;58703;48.978;8.982;2023-01-30T18:09:19;3.39;91.27
71047;SHT31;58703;48.978;8.982;2023-01-30T18:11:47;3.38;91.34
71047;SHT31;58703;48.978;8.982;2023-01-30T18:14:13;3.38;91.34
71047;SHT31;58703;48.978;8.982;2023-01-30T18:16:40;3.39;91.31
71047;SHT31;58703;48.978;8.982;2023-01-30T18:19:09;3.41;91.57
71047;SHT31;58703;48.978;8.982;2023-01-30T18:21:37;3.35;91.52
71047;SHT31;58703;48.978;8.982;2023-01-30T18:24:05;3.34;91.80
71047;SHT31;58703;48.978;8.982;2023-01-30T18:26:32;3.34;91.70
71047;SHT31;58703;48.978;8.982;2023-01-30T18:28:59;3.31;91.96
71047;SHT31;58703;48.978;8.982;2023-01-30T18:31:30;3.34;92.07
71047;SHT31;58703;48.978;8.982;2023-01-30T18:33:57;3.36;92.03
71047;SHT31;58703;48.978;8.982;2023-01-30T18:36:23;3.41;91.85